createdAt,value
2022-12-19T00:00:15.180Z,1.50
2022-12-19T00:02:42.839Z,1.60
2022-12-19T00:05:11.215Z,1.50
2022-12-19T00:07:38.743Z,1.70
2022-12-19T00:10:07.457Z,1.80
2022-12-19T00:12:34.956Z,1.80
2022-12-19T00:15:02.391Z,1.80
2022-12-19T00:17:29.931Z,1.70
2022-12-19T00:19:57.377Z,1.70
2022-12-19T00:22:24.992Z,1.70
2022-12-19T00:24:52.520Z,1.70
2022-12-19T00:27:20.212Z,1.60
2022-12-19T00:29:47.725Z,1.70
2022-12-19T00:32:16.147Z,1.80
2022-12-19T00:34:44.198Z,1.80
2022-12-19T00:37:11.939Z,1.70
2022-12-19T00:39:39.426Z,1.80
2022-12-19T00:42:07.025Z,1.80
2022-12-19T00:44:34.509Z,1.90
2022-12-19T00:47:02.001Z,1.90
2022-12-19T00:49:30.852Z,2.00
2022-12-19T00:52:00.107Z,1.90
2022-12-19T00:54:27.734Z,1.90
2022-12-19T00:56:55.427Z,1.90
2022-12-19T00:59:26.392Z,1.90
2022-12-19T01:01:57.494Z,1.80
2022-12-19T01:04:29.549Z,1.80
2022-12-19T01:07:02.627Z,1.90
2022-12-19T01:09:35.031Z,2.00
2022-12-19T01:12:24.661Z,1.90
2022-12-19T01:15:04.424Z,1.90
2022-12-19T01:17:40.347Z,2.10
2022-12-19T01:20:15.094Z,2.10
2022-12-19T01:22:42.843Z,2.20
2022-12-19T01:25:10.502Z,2.10
2022-12-19T01:27:39.726Z,1.90
2022-12-19T01:30:08.092Z,1.90
2022-12-19T01:32:36.332Z,2.00
2022-12-19T01:35:04.303Z,2.00
2022-12-19T01:37:31.806Z,2.00
2022-12-19T01:39:59.250Z,2.00
2022-12-19T01:42:26.619Z,1.90
2022-12-19T01:45:17.334Z,2.00
2022-12-19T01:48:02.829Z,2.10
2022-12-19T01:51:00.677Z,2.10
2022-12-19T01:53:49.339Z,1.90
2022-12-19T01:56:23.995Z,2.10
2022-12-19T01:59:06.622Z,2.20
2022-12-19T02:01:56.693Z,2.20
2022-12-19T02:04:32.508Z,2.20
2022-12-19T02:07:08.117Z,2.10
2022-12-19T02:09:51.172Z,2.10
2022-12-19T02:12:28.487Z,2.00
2022-12-19T02:15:03.179Z,2.10
2022-12-19T02:17:35.240Z,2.00
2022-12-19T02:20:24.735Z,1.90
2022-12-19T02:23:27.196Z,1.90
2022-12-19T02:26:28.898Z,2.00
2022-12-19T02:28:56.381Z,2.00
2022-12-19T02:31:36.478Z,1.90
2022-12-19T02:34:22.443Z,1.90
2022-12-19T02:37:32.871Z,2.00
2022-12-19T02:40:20.499Z,2.10
2022-12-19T02:42:54.671Z,2.10
2022-12-19T02:45:28.885Z,1.90
2022-12-19T02:48:04.548Z,1.90
2022-12-19T02:50:41.613Z,1.90
2022-12-19T02:53:11.784Z,1.80
2022-12-19T02:55:51.100Z,1.80
2022-12-19T02:58:43.688Z,1.90
2022-12-19T03:01:33.075Z,1.90
2022-12-19T03:04:20.704Z,2.00
2022-12-19T03:07:13.779Z,2.00
2022-12-19T03:09:58.795Z,2.10
2022-12-19T03:12:32.949Z,2.00
2022-12-19T03:15:01.482Z,2.00
2022-12-19T03:17:34.043Z,1.90
2022-12-19T03:20:04.534Z,2.00
2022-12-19T03:22:32.018Z,2.20
2022-12-19T03:24:59.735Z,2.20
2022-12-19T03:27:33.327Z,2.20
2022-12-19T03:30:23.750Z,2.20
2022-12-19T03:32:52.643Z,2.30
2022-12-19T03:35:27.400Z,2.20
2022-12-19T03:37:57.811Z,2.20
2022-12-19T03:40:27.526Z,2.20
2022-12-19T03:43:12.265Z,2.20
2022-12-19T03:45:40.248Z,2.30
2022-12-19T03:48:14.949Z,2.40
2022-12-19T03:51:01.465Z,2.40
2022-12-19T03:54:15.651Z,2.40
2022-12-19T03:56:49.265Z,2.40
2022-12-19T03:59:34.467Z,2.40
2022-12-19T04:02:03.547Z,2.50
2022-12-19T04:04:35.151Z,2.50
2022-12-19T04:07:04.120Z,2.50
2022-12-19T04:09:33.892Z,2.60
2022-12-19T04:12:06.255Z,2.60
2022-12-19T04:14:38.628Z,2.60
2022-12-19T04:17:39.412Z,2.50
2022-12-19T04:20:19.289Z,2.60
2022-12-19T04:23:04.494Z,2.70
2022-12-19T04:25:55.787Z,2.60
2022-12-19T04:28:38.456Z,2.60
2022-12-19T04:31:07.256Z,2.80
2022-12-19T04:33:34.680Z,2.80
2022-12-19T04:36:02.143Z,2.80
2022-12-19T04:38:29.626Z,2.70
2022-12-19T04:40:57.047Z,2.70
2022-12-19T04:43:24.606Z,2.60
2022-12-19T04:45:57.160Z,2.80
2022-12-19T04:48:25.744Z,2.70
2022-12-19T04:50:53.479Z,2.70
2022-12-19T04:53:21.001Z,2.70
2022-12-19T04:55:48.547Z,2.70
2022-12-19T04:58:21.444Z,2.60
2022-12-19T05:00:49.531Z,2.60
2022-12-19T05:03:16.999Z,2.70
2022-12-19T05:05:44.543Z,2.60
2022-12-19T05:08:12.091Z,2.70
2022-12-19T05:10:39.590Z,2.70
2022-12-19T05:13:07.734Z,2.80
2022-12-19T05:15:35.505Z,2.80
2022-12-19T05:18:03.088Z,2.70
2022-12-19T05:20:30.569Z,2.80
2022-12-19T05:22:59.921Z,2.70
2022-12-19T05:25:29.296Z,2.60
2022-12-19T05:27:56.704Z,2.70
2022-12-19T05:30:24.579Z,2.60
2022-12-19T05:32:52.023Z,2.60
2022-12-19T05:35:19.511Z,2.80
2022-12-19T05:37:46.934Z,2.90
2022-12-19T05:40:14.415Z,3.10
2022-12-19T05:42:41.983Z,3.10
2022-12-19T05:45:09.623Z,3.00
2022-12-19T05:47:38.162Z,2.90
2022-12-19T05:50:06.079Z,2.90
2022-12-19T05:52:33.545Z,3.00
2022-12-19T05:55:01.194Z,2.90
2022-12-19T05:57:28.680Z,2.90
2022-12-19T05:59:56.054Z,3.00
2022-12-19T06:02:23.921Z,3.00
2022-12-19T06:04:52.069Z,3.00
2022-12-19T06:07:21.234Z,3.10
2022-12-19T06:09:48.988Z,3.10
2022-12-19T06:12:16.630Z,3.10
2022-12-19T06:14:44.135Z,3.10
2022-12-19T06:17:11.539Z,2.90
2022-12-19T06:19:39.060Z,3.00
2022-12-19T06:22:06.765Z,3.00
2022-12-19T06:24:34.179Z,3.10
2022-12-19T06:27:01.705Z,2.90
2022-12-19T06:29:29.103Z,3.00
2022-12-19T06:31:56.783Z,3.20
2022-12-19T06:34:54.992Z,3.20
2022-12-19T06:37:12.469Z,3.20
2022-12-19T06:39:40.076Z,3.30
2022-12-19T06:42:24.735Z,3.20
2022-12-19T06:44:53.671Z,3.20
2022-12-19T06:47:23.225Z,3.20
2022-12-19T06:49:50.779Z,3.40
2022-12-19T06:52:18.504Z,3.40
2022-12-19T06:54:46.011Z,3.40
2022-12-19T06:57:13.496Z,3.50
2022-12-19T06:59:40.958Z,3.50
2022-12-19T07:02:28.693Z,3.50
2022-12-19T07:05:05.508Z,3.50
2022-12-19T07:07:33.140Z,3.50
2022-12-19T07:10:00.806Z,3.50
2022-12-19T07:12:28.412Z,3.50
2022-12-19T07:14:55.958Z,3.60
2022-12-19T07:17:25.323Z,3.60
2022-12-19T07:19:57.635Z,3.50
2022-12-19T07:22:27.245Z,3.60
2022-12-19T07:24:56.333Z,3.50
2022-12-19T07:27:23.884Z,3.50
2022-12-19T07:29:51.342Z,3.60
2022-12-19T07:32:18.831Z,3.80
2022-12-19T07:34:46.394Z,3.80
2022-12-19T07:37:13.779Z,3.90
2022-12-19T07:39:41.201Z,3.90
2022-12-19T07:42:08.674Z,3.90
2022-12-19T07:44:39.762Z,3.90
2022-12-19T07:47:07.907Z,3.90
2022-12-19T07:49:35.422Z,3.90
2022-12-19T07:52:03.052Z,4.00
2022-12-19T07:54:30.526Z,4.20
2022-12-19T07:56:58.107Z,4.20
2022-12-19T07:59:30.386Z,4.20
2022-12-19T08:02:00.001Z,4.10
2022-12-19T08:04:27.518Z,4.20
2022-12-19T08:06:54.969Z,4.40
2022-12-19T08:09:22.450Z,4.50
2022-12-19T08:11:49.946Z,4.50
2022-12-19T08:14:17.502Z,4.50
2022-12-19T08:17:18.729Z,4.50
2022-12-19T08:19:32.455Z,4.50
2022-12-19T08:21:59.911Z,4.40
2022-12-19T08:24:27.373Z,4.50
2022-12-19T08:26:54.796Z,4.50
2022-12-19T08:29:22.577Z,4.60
2022-12-19T08:31:50.341Z,4.50
2022-12-19T08:34:18.083Z,4.60
2022-12-19T08:36:45.560Z,4.40
2022-12-19T08:39:13.185Z,4.60
2022-12-19T08:41:40.659Z,4.60
2022-12-19T08:44:11.741Z,4.90
2022-12-19T08:46:41.636Z,4.90
2022-12-19T08:49:12.471Z,5.00
2022-12-19T08:51:39.940Z,4.90
2022-12-19T08:54:07.965Z,4.90
2022-12-19T08:56:45.313Z,4.90
2022-12-19T08:59:21.262Z,5.00
2022-12-19T09:02:00.609Z,4.90
2022-12-19T09:05:56.248Z,4.70
2022-12-19T09:07:17.138Z,4.90
2022-12-19T09:09:45.357Z,4.80
2022-12-19T09:12:14.351Z,4.80
2022-12-19T09:14:42.018Z,4.80
2022-12-19T09:17:09.757Z,4.90
2022-12-19T09:19:37.380Z,4.90
2022-12-19T09:22:05.665Z,5.10
2022-12-19T09:24:33.129Z,5.30
2022-12-19T09:27:00.658Z,5.30
2022-12-19T09:29:32.224Z,5.40
2022-12-19T09:32:03.115Z,5.40
2022-12-19T09:34:38.542Z,5.40
2022-12-19T09:37:16.356Z,5.30
2022-12-19T09:39:46.676Z,5.30
2022-12-19T09:42:17.058Z,5.50
2022-12-19T09:44:56.325Z,5.50
2022-12-19T09:47:28.540Z,5.60
2022-12-19T09:49:58.861Z,5.60
2022-12-19T09:52:32.943Z,5.40
2022-12-19T09:55:16.812Z,5.60
2022-12-19T09:57:56.294Z,5.70
2022-12-19T10:00:24.545Z,5.40
2022-12-19T10:03:40.221Z,5.40
2022-12-19T10:07:10.960Z,5.40
2022-12-19T10:10:03.987Z,5.20
2022-12-19T10:12:47.954Z,5.40
2022-12-19T10:15:08.951Z,5.40
2022-12-19T10:17:58.445Z,5.30
2022-12-19T10:20:34.507Z,5.30
2022-12-19T10:23:10.664Z,5.50
2022-12-19T10:25:43.782Z,5.30
2022-12-19T10:28:49.106Z,5.60
2022-12-19T10:31:35.852Z,5.60
2022-12-19T10:34:24.942Z,5.40
2022-12-19T10:37:26.555Z,5.50
2022-12-19T10:40:27.605Z,5.70
2022-12-19T10:43:32.869Z,5.80
2022-12-19T10:46:13.209Z,5.60
2022-12-19T10:48:40.674Z,5.50
2022-12-19T10:51:13.706Z,5.60
2022-12-19T10:53:41.189Z,5.60
2022-12-19T10:56:23.451Z,5.40
2022-12-19T10:58:58.810Z,5.60
2022-12-19T11:01:39.569Z,5.50
2022-12-19T11:04:33.099Z,5.60
2022-12-19T11:07:03.867Z,5.70
2022-12-19T11:09:37.076Z,5.60
2022-12-19T11:16:46.534Z,5.60
2022-12-19T11:19:53.533Z,5.80
2022-12-19T11:29:15.299Z,5.80
2022-12-19T11:29:19.505Z,5.90
2022-12-19T11:29:46.776Z,5.90
2022-12-19T11:30:42.813Z,5.90
2022-12-19T11:32:42.283Z,6.00
2022-12-19T11:35:36.616Z,5.80
2022-12-19T11:38:08.435Z,6.10
2022-12-19T11:40:53.072Z,6.00
2022-12-19T11:43:46.122Z,6.00
2022-12-19T11:46:21.834Z,6.20
2022-12-19T11:49:06.090Z,6.10
2022-12-19T11:52:06.346Z,6.40
2022-12-19T11:54:48.369Z,6.60
2022-12-19T11:57:16.935Z,6.60
2022-12-19T11:59:45.014Z,6.40
2022-12-19T12:02:40.362Z,6.40
2022-12-19T12:05:22.975Z,6.50
2022-12-19T12:09:03.288Z,6.20
2022-12-19T12:17:52.343Z,6.30
2022-12-19T12:24:17.636Z,6.40
2022-12-19T12:29:16.551Z,6.30
2022-12-19T12:31:02.048Z,6.50
2022-12-19T12:31:43.908Z,6.70
2022-12-19T12:31:52.367Z,6.70
2022-12-19T12:32:00.363Z,6.80
2022-12-19T12:35:51.343Z,6.70
2022-12-19T12:37:57.360Z,6.70
2022-12-19T12:39:55.331Z,6.80
2022-12-19T12:42:45.067Z,7.00
2022-12-19T12:45:48.348Z,6.80
2022-12-19T12:48:38.332Z,6.80
2022-12-19T12:51:07.218Z,6.90
2022-12-19T12:53:40.885Z,6.70
2022-12-19T12:56:11.016Z,6.70
2022-12-19T12:58:53.898Z,6.80
2022-12-19T13:01:36.849Z,6.90
2022-12-19T13:04:07.199Z,6.80
2022-12-19T13:06:36.207Z,6.80
2022-12-19T13:09:09.310Z,6.80
2022-12-19T13:11:59.620Z,6.70
2022-12-19T13:14:37.074Z,6.70
2022-12-19T13:17:06.667Z,6.80
2022-12-19T13:19:37.177Z,6.70
2022-12-19T13:22:04.750Z,6.80
2022-12-19T13:24:45.853Z,6.80
2022-12-19T13:27:33.577Z,6.80
2022-12-19T13:30:01.087Z,6.90
2022-12-19T13:32:54.936Z,6.80
2022-12-19T13:36:20.193Z,6.70
2022-12-19T13:40:00.881Z,6.60
2022-12-19T13:41:46.605Z,6.50
2022-12-19T13:44:14.893Z,6.60
2022-12-19T13:46:44.550Z,6.60
2022-12-19T13:49:31.911Z,6.60
2022-12-19T13:52:04.564Z,6.40
2022-12-19T13:54:37.584Z,6.50
2022-12-19T13:57:22.615Z,6.30
2022-12-19T14:00:00.068Z,6.40
2022-12-19T14:02:31.216Z,6.40
2022-12-19T14:04:59.796Z,6.30
2022-12-19T14:07:36.911Z,6.20
2022-12-19T14:11:30.458Z,6.30
2022-12-19T14:14:00.799Z,6.30
2022-12-19T14:16:05.735Z,6.40
2022-12-19T14:18:44.375Z,6.50
2022-12-19T14:22:10.656Z,6.30
2022-12-19T14:24:25.127Z,6.20
2022-12-19T14:28:21.001Z,6.30
2022-12-19T14:30:27.711Z,6.30
2022-12-19T14:33:45.422Z,6.30
2022-12-19T14:36:10.776Z,6.30
2022-12-19T14:39:19.797Z,6.30
2022-12-19T14:41:48.560Z,6.20
2022-12-19T14:53:08.571Z,6.20
2022-12-19T14:53:52.385Z,6.20
2022-12-19T14:54:04.327Z,6.20
2022-12-19T14:54:25.520Z,6.10
2022-12-19T14:56:57.597Z,6.30
2022-12-19T14:59:06.100Z,6.30
2022-12-19T15:01:35.388Z,6.40
2022-12-19T15:04:51.894Z,6.30
2022-12-19T15:07:10.037Z,6.40
2022-12-19T15:11:08.383Z,6.50
2022-12-19T15:14:47.043Z,6.30
2022-12-19T15:16:03.889Z,6.30
2022-12-19T15:18:39.449Z,6.20
2022-12-19T15:21:10.544Z,6.30
2022-12-19T15:23:38.364Z,6.20
2022-12-19T15:26:13.100Z,6.10
2022-12-19T15:28:43.428Z,6.10
2022-12-19T15:31:17.218Z,6.10
2022-12-19T15:34:07.126Z,6.10
2022-12-19T15:36:32.329Z,6.20
2022-12-19T15:38:59.795Z,6.10
2022-12-19T15:41:27.943Z,6.20
2022-12-19T15:44:05.110Z,6.10
2022-12-19T15:46:33.609Z,6.20
2022-12-19T15:49:02.138Z,6.10
2022-12-19T15:51:29.769Z,6.20
2022-12-19T15:54:22.125Z,6.10
2022-12-19T15:56:49.981Z,6.10
2022-12-19T15:59:23.478Z,6.20
2022-12-19T16:01:52.165Z,6.20
2022-12-19T16:04:20.023Z,6.10
2022-12-19T16:06:47.593Z,6.10
2022-12-19T16:09:23.603Z,6.00
2022-12-19T16:11:52.687Z,6.00
2022-12-19T16:14:22.435Z,5.90
2022-12-19T16:16:54.203Z,5.80
2022-12-19T16:19:30.692Z,5.70
2022-12-19T16:21:59.198Z,5.60
2022-12-19T16:24:27.143Z,5.80
2022-12-19T16:26:56.804Z,5.90
2022-12-19T16:29:27.661Z,5.90
2022-12-19T16:31:55.690Z,5.90
2022-12-19T16:34:24.736Z,6.00
2022-12-19T16:36:52.281Z,5.90
2022-12-19T16:39:19.792Z,5.80
2022-12-19T16:41:47.392Z,5.90
2022-12-19T16:44:19.528Z,5.90
2022-12-19T16:46:51.062Z,5.90
2022-12-19T16:49:22.907Z,5.90
2022-12-19T16:51:51.273Z,5.80
2022-12-19T16:54:20.024Z,5.90
2022-12-19T16:56:53.635Z,6.00
2022-12-19T16:59:22.932Z,6.10
2022-12-19T17:01:51.113Z,6.10
2022-12-19T17:04:21.734Z,6.10
2022-12-19T17:06:50.779Z,6.00
2022-12-19T17:09:21.602Z,6.00
2022-12-19T17:11:53.644Z,5.90
2022-12-19T17:14:22.634Z,5.90
2022-12-19T17:16:53.563Z,5.80
2022-12-19T17:19:38.459Z,5.80
2022-12-19T17:22:12.998Z,5.80
2022-12-19T17:24:40.570Z,5.70
2022-12-19T17:27:08.177Z,5.80
2022-12-19T17:29:35.937Z,5.70
2022-12-19T17:32:04.209Z,5.70
2022-12-19T17:34:33.076Z,5.80
2022-12-19T17:37:04.566Z,5.80
2022-12-19T17:39:34.773Z,5.80
2022-12-19T17:42:13.395Z,5.70
2022-12-19T17:44:40.915Z,5.70
2022-12-19T17:47:20.731Z,5.80
2022-12-19T17:49:49.015Z,5.60
2022-12-19T17:52:19.595Z,5.70
2022-12-19T17:54:47.717Z,5.60
2022-12-19T17:57:17.855Z,5.70
2022-12-19T17:59:46.692Z,5.70
2022-12-19T18:02:24.768Z,5.80
2022-12-19T18:04:53.070Z,5.90
2022-12-19T18:07:20.889Z,5.90
2022-12-19T18:09:48.331Z,5.90
2022-12-19T18:12:15.969Z,5.90
2022-12-19T18:14:43.622Z,5.90
2022-12-19T18:17:13.742Z,5.90
2022-12-19T18:19:41.395Z,5.90
2022-12-19T18:22:15.431Z,5.90
2022-12-19T18:24:42.972Z,5.90
2022-12-19T18:27:11.095Z,5.90
2022-12-19T18:29:38.646Z,5.90
2022-12-19T18:32:06.181Z,5.90
2022-12-19T18:34:35.625Z,5.80
2022-12-19T18:37:05.520Z,5.90
2022-12-19T18:39:34.155Z,5.90
2022-12-19T18:42:01.741Z,5.80
2022-12-19T18:44:29.225Z,5.70
2022-12-19T18:46:56.861Z,5.30
2022-12-19T18:49:24.522Z,5.20
2022-12-19T18:51:52.192Z,5.30
2022-12-19T18:54:22.170Z,5.50
2022-12-19T18:56:49.984Z,5.60
2022-12-19T18:59:17.494Z,5.70
2022-12-19T19:01:47.255Z,5.60
2022-12-19T19:04:18.028Z,5.70
2022-12-19T19:06:51.728Z,5.80
2022-12-19T19:09:20.849Z,5.70
2022-12-19T19:12:06.847Z,5.70
2022-12-19T19:14:34.387Z,5.40
2022-12-19T19:17:03.449Z,5.20
2022-12-19T19:19:31.039Z,5.30
2022-12-19T19:21:58.569Z,5.20
2022-12-19T19:24:26.035Z,5.20
2022-12-19T19:26:53.558Z,5.00
2022-12-19T19:29:21.067Z,5.00
2022-12-19T19:31:51.713Z,5.10
2022-12-19T19:34:23.910Z,5.10
2022-12-19T19:36:56.226Z,5.10
2022-12-19T19:39:24.226Z,5.10
2022-12-19T19:41:51.762Z,5.10
2022-12-19T19:44:19.438Z,5.20
2022-12-19T19:46:47.246Z,5.10
2022-12-19T19:49:15.684Z,5.10
2022-12-19T19:51:43.187Z,5.00
2022-12-19T19:54:10.713Z,5.10
2022-12-19T19:56:38.617Z,5.10
2022-12-19T19:59:06.358Z,5.20
2022-12-19T20:01:34.770Z,5.20
2022-12-19T20:04:02.693Z,5.20
2022-12-19T20:06:30.229Z,5.30
2022-12-19T20:08:57.622Z,5.10
2022-12-19T20:11:25.209Z,5.20
2022-12-19T20:13:52.665Z,5.20
2022-12-19T20:16:20.296Z,5.20
2022-12-19T20:18:52.996Z,5.20
2022-12-19T20:21:21.383Z,5.30
2022-12-19T20:23:49.052Z,5.30
2022-12-19T20:26:17.454Z,5.30
2022-12-19T20:28:49.367Z,5.30
2022-12-19T20:31:23.131Z,5.30
2022-12-19T20:33:53.198Z,5.40
2022-12-19T20:36:21.063Z,5.40
2022-12-19T20:38:49.222Z,5.30
2022-12-19T20:41:17.629Z,5.40
2022-12-19T20:43:45.752Z,5.50
2022-12-19T20:46:15.959Z,5.50
2022-12-19T20:48:44.891Z,5.40
2022-12-19T20:51:13.830Z,5.30
2022-12-19T20:53:41.730Z,5.40
2022-12-19T20:56:13.507Z,5.50
2022-12-19T20:58:41.055Z,5.60
2022-12-19T21:01:22.484Z,5.50
2022-12-19T21:03:50.657Z,5.50
2022-12-19T21:06:20.472Z,5.50
2022-12-19T21:08:48.688Z,5.50
2022-12-19T21:11:16.282Z,5.50
2022-12-19T21:13:44.437Z,5.50
2022-12-19T21:16:15.643Z,5.40
2022-12-19T21:18:44.840Z,5.40
2022-12-19T21:21:24.821Z,5.50
2022-12-19T21:23:53.942Z,5.40
2022-12-19T21:26:23.461Z,5.40
2022-12-19T21:28:51.449Z,5.40
2022-12-19T21:31:22.016Z,5.30
2022-12-19T21:33:51.239Z,5.40
2022-12-19T21:36:20.983Z,5.50
2022-12-19T21:38:50.535Z,5.50
2022-12-19T21:41:21.398Z,5.50
2022-12-19T21:43:53.399Z,5.50
2022-12-19T21:46:24.906Z,5.50
2022-12-19T21:48:54.541Z,5.50
2022-12-19T21:51:25.280Z,5.60
2022-12-19T21:53:57.943Z,5.60
2022-12-19T21:56:28.355Z,5.60
2022-12-19T21:59:05.148Z,5.60
2022-12-19T22:01:33.335Z,5.60
2022-12-19T22:04:09.126Z,5.50
2022-12-19T22:06:38.321Z,5.50
2022-12-19T22:09:08.099Z,5.40
2022-12-19T22:11:36.519Z,5.60
2022-12-19T22:14:05.246Z,5.50
2022-12-19T22:16:33.929Z,5.60
2022-12-19T22:19:01.883Z,5.50
2022-12-19T22:21:29.502Z,5.60
2022-12-19T22:23:58.362Z,5.40
2022-12-19T22:26:27.439Z,5.30
2022-12-19T22:28:56.645Z,5.50
2022-12-19T22:31:32.195Z,5.60
2022-12-19T22:34:02.274Z,5.50
2022-12-19T22:36:32.010Z,5.40
2022-12-19T22:39:01.573Z,5.60
2022-12-19T22:41:29.231Z,5.50
2022-12-19T22:43:56.873Z,5.60
2022-12-19T22:46:27.266Z,5.60
2022-12-19T22:48:59.647Z,5.50
2022-12-19T22:51:28.456Z,5.50
2022-12-19T22:53:56.748Z,5.50
2022-12-19T22:56:27.108Z,5.50
2022-12-19T22:58:56.117Z,5.50
2022-12-19T23:01:33.658Z,5.40
2022-12-19T23:04:02.811Z,5.50
2022-12-19T23:06:32.553Z,5.60
2022-12-19T23:09:00.674Z,5.60
2022-12-19T23:11:34.688Z,5.50
2022-12-19T23:14:04.619Z,5.40
2022-12-19T23:16:32.187Z,5.50
2022-12-19T23:18:59.957Z,5.50
2022-12-19T23:21:27.744Z,5.60
2022-12-19T23:23:56.379Z,5.60
2022-12-19T23:26:33.223Z,5.60
2022-12-19T23:29:10.030Z,5.60
2022-12-19T23:31:41.185Z,5.50
2022-12-19T23:34:10.591Z,5.40
2022-12-19T23:37:09.682Z,5.50
2022-12-19T23:39:26.509Z,5.60
2022-12-19T23:41:53.966Z,5.60
2022-12-19T23:44:21.729Z,5.60
2022-12-19T23:46:49.262Z,5.50
2022-12-19T23:49:17.108Z,5.60
2022-12-19T23:51:44.628Z,5.60
2022-12-19T23:54:12.170Z,5.60
2022-12-19T23:56:39.642Z,5.50
2022-12-19T23:59:07.166Z,5.60
